sensor_id;sensor_type;location;lat;lon;timestamp;pressure;altitude;pressure_sealevel;temperature;humidity
47374;BME280;33123;50.118;10.272;2022-09-16T00:02:03;97034.94;;;15.57;64.52
47374;BME280;33123;50.118;10.272;2022-09-16T00:04:30;97032.84;;;15.54;64.53
47374;BME280;33123;50.118;10.272;2022-09-16T00:06:56;97034.44;;;15.55;64.61
47374;BME280;33123;50.118;10.272;2022-09-16T00:09:23;97038.97;;;15.55;64.76
47374;BME280;33123;50.118;10.272;2022-09-16T00:11:51;97034.13;;;15.57;63.74
47374;BME280;33123;50.118;10.272;2022-09-16T00:14:17;97032.28;;;15.57;64.38
47374;BME280;33123;50.118;10.272;2022-09-16T00:16:44;97036.78;;;15.57;64.28
47374;BME280;33123;50.118;10.272;2022-09-16T00:19:11;97032.28;;;15.57;63.93
47374;BME280;33123;50.118;10.272;2022-09-16T00:21:37;97032.28;;;15.57;64.10
47374;BME280;33123;50.118;10.272;2022-09-16T00:24:04;97032.28;;;15.57;64.05
47374;BME280;33123;50.118;10.272;2022-09-16T00:26:31;97033.84;;;15.58;64.06
47374;BME280;33123;50.118;10.272;2022-09-16T00:29:00;97033.53;;;15.60;63.77
47374;BME280;33123;50.118;10.272;2022-09-16T00:31:26;97027.16;;;15.61;63.58
47374;BME280;33123;50.118;10.272;2022-09-16T00:33:53;97038.06;;;15.59;63.79
47374;BME280;33123;50.118;10.272;2022-09-16T00:36:20;97030.41;;;15.58;63.44
47374;BME280;33123;50.118;10.272;2022-09-16T00:38:49;97026.66;;;15.59;63.97
47374;BME280;33123;50.118;10.272;2022-09-16T00:41:18;97033.06;;;15.58;64.17
47374;BME280;33123;50.118;10.272;2022-09-16T00:43:47;97034.13;;;15.57;64.82
47374;BME280;33123;50.118;10.272;2022-09-16T00:46:16;97031.50;;;15.57;64.19
47374;BME280;33123;50.118;10.272;2022-09-16T00:48:43;97026.19;;;15.57;64.59
47374;BME280;33123;50.118;10.272;2022-09-16T00:51:34;97023.81;;;15.55;64.34
47374;BME280;33123;50.118;10.272;2022-09-16T00:54:03;97022.22;;;15.54;64.31
47374;BME280;33123;50.118;10.272;2022-09-16T00:56:36;97024.69;;;15.51;64.12
47374;BME280;33123;50.118;10.272;2022-09-16T00:59:05;97016.81;;;15.46;63.93
47374;BME280;33123;50.118;10.272;2022-09-16T01:01:35;97005.50;;;15.40;64.61
47374;BME280;33123;50.118;10.272;2022-09-16T01:04:08;97018.59;;;15.50;64.41
47374;BME280;33123;50.118;10.272;2022-09-16T01:06:38;97027.34;;;15.51;64.66
47374;BME280;33123;50.118;10.272;2022-09-16T01:09:05;97022.03;;;15.51;64.76
47374;BME280;33123;50.118;10.272;2022-09-16T01:11:32;97012.88;;;15.43;63.71
47374;BME280;33123;50.118;10.272;2022-09-16T01:13:59;97019.69;;;15.49;64.15
47374;BME280;33123;50.118;10.272;2022-09-16T01:16:44;97023.13;;;15.50;64.84
47374;BME280;33123;50.118;10.272;2022-09-16T01:19:24;97020.47;;;15.50;64.46
47374;BME280;33123;50.118;10.272;2022-09-16T01:22:06;97024.19;;;15.49;64.57
47374;BME280;33123;50.118;10.272;2022-09-16T01:24:48;97022.63;;;15.48;64.61
47374;BME280;33123;50.118;10.272;2022-09-16T01:27:33;97015.72;;;15.47;64.82
47374;BME280;33123;50.118;10.272;2022-09-16T01:30:16;97021.66;;;15.44;64.65
47374;BME280;33123;50.118;10.272;2022-09-16T01:32:57;97025.34;;;15.43;64.69
47374;BME280;33123;50.118;10.272;2022-09-16T01:35:35;97020.84;;;15.43;65.06
47374;BME280;33123;50.118;10.272;2022-09-16T01:38:12;97023.31;;;15.40;65.03
47374;BME280;33123;50.118;10.272;2022-09-16T01:40:48;97025.97;;;15.40;65.10
47374;BME280;33123;50.118;10.272;2022-09-16T01:43:20;97036.59;;;15.40;65.15
47374;BME280;33123;50.118;10.272;2022-09-16T01:45:53;97033.16;;;15.39;65.37
47374;BME280;33123;50.118;10.272;2022-09-16T01:48:24;97028.09;;;15.38;65.79
47374;BME280;33123;50.118;10.272;2022-09-16T01:50:59;97022.78;;;15.38;65.68
47374;BME280;33123;50.118;10.272;2022-09-16T01:53:32;97017.00;;;15.36;65.36
47374;BME280;33123;50.118;10.272;2022-09-16T01:56:07;97017.00;;;15.36;65.49
47374;BME280;33123;50.118;10.272;2022-09-16T02:02:01;97014.44;;;15.30;66.00
47374;BME280;33123;50.118;10.272;2022-09-16T02:04:32;97016.91;;;15.27;66.08
47374;BME280;33123;50.118;10.272;2022-09-16T02:07:02;97014.25;;;15.27;66.41
47374;BME280;33123;50.118;10.272;2022-09-16T02:09:32;97017.16;;;15.25;65.90
47374;BME280;33123;50.118;10.272;2022-09-16T02:12:03;97016.69;;;15.23;66.41
47374;BME280;33123;50.118;10.272;2022-09-16T02:14:34;97018.84;;;15.21;66.11
47374;BME280;33123;50.118;10.272;2022-09-16T02:20:29;97006.81;;;15.10;66.41
47374;BME280;33123;50.118;10.272;2022-09-16T02:23:35;97019.03;;;15.11;66.42
47374;BME280;33123;50.118;10.272;2022-09-16T02:26:05;97016.94;;;15.08;66.45
47374;BME280;33123;50.118;10.272;2022-09-16T02:28:36;97025.50;;;15.05;66.95
47374;BME280;33123;50.118;10.272;2022-09-16T02:31:06;97020.75;;;15.02;66.63
47374;BME280;33123;50.118;10.272;2022-09-16T02:33:37;97025.59;;;15.00;66.50
47374;BME280;33123;50.118;10.272;2022-09-16T02:36:10;97033.53;;;15.00;66.50
47374;BME280;33123;50.118;10.272;2022-09-16T02:38:40;97022.72;;;14.96;66.85
47374;BME280;33123;50.118;10.272;2022-09-16T02:41:09;97016.63;;;14.96;66.52
47374;BME280;33123;50.118;10.272;2022-09-16T02:43:39;97003.72;;;14.89;66.56
47374;BME280;33123;50.118;10.272;2022-09-16T02:46:09;97023.00;;;14.95;67.11
47374;BME280;33123;50.118;10.272;2022-09-16T02:48:45;97017.78;;;14.90;67.09
47374;BME280;33123;50.118;10.272;2022-09-16T02:51:28;97014.81;;;14.91;67.23
47374;BME280;33123;50.118;10.272;2022-09-16T02:54:00;97010.47;;;14.82;67.60
47374;BME280;33123;50.118;10.272;2022-09-16T02:56:32;97027.38;;;14.86;67.62
47374;BME280;33123;50.118;10.272;2022-09-16T02:59:00;97023.47;;;14.83;67.53
47374;BME280;33123;50.118;10.272;2022-09-16T03:01:30;97012.16;;;14.77;67.30
47374;BME280;33123;50.118;10.272;2022-09-16T03:03:58;97022.94;;;14.81;67.85
47374;BME280;33123;50.118;10.272;2022-09-16T03:06:26;97023.25;;;14.79;67.29
47374;BME280;33123;50.118;10.272;2022-09-16T03:08:58;97021.69;;;14.78;67.22
47374;BME280;33123;50.118;10.272;2022-09-16T03:11:44;97020.88;;;14.78;67.58
47374;BME280;33123;50.118;10.272;2022-09-16T03:17:17;97021.53;;;14.70;67.64
47374;BME280;33123;50.118;10.272;2022-09-16T03:19:56;97013.38;;;14.66;68.16
47374;BME280;33123;50.118;10.272;2022-09-16T03:22:36;97016.28;;;14.65;67.77
47374;BME280;33123;50.118;10.272;2022-09-16T03:25:10;97016.09;;;14.61;67.87
47374;BME280;33123;50.118;10.272;2022-09-16T03:28:05;97006.06;;;14.58;68.18
47374;BME280;33123;50.118;10.272;2022-09-16T03:30:38;97007.44;;;14.56;68.84
47374;BME280;33123;50.118;10.272;2022-09-16T03:33:14;97003.28;;;14.49;68.03
47374;BME280;33123;50.118;10.272;2022-09-16T03:35:45;97007.00;;;14.48;68.34
47374;BME280;33123;50.118;10.272;2022-09-16T03:38:16;97005.41;;;14.47;68.47
47374;BME280;33123;50.118;10.272;2022-09-16T03:40:45;96988.28;;;14.40;68.40
47374;BME280;33123;50.118;10.272;2022-09-16T03:43:14;97008.63;;;14.44;68.73
47374;BME280;33123;50.118;10.272;2022-09-16T03:45:59;97005.19;;;14.44;68.46
47374;BME280;33123;50.118;10.272;2022-09-16T03:48:26;97007.31;;;14.42;68.65
47374;BME280;33123;50.118;10.272;2022-09-16T03:50:52;97005.75;;;14.41;68.08
47374;BME280;33123;50.118;10.272;2022-09-16T03:53:20;97008.41;;;14.41;68.48
47374;BME280;33123;50.118;10.272;2022-09-16T03:55:47;97003.59;;;14.43;69.03
47374;BME280;33123;50.118;10.272;2022-09-16T03:58:14;97002.03;;;14.42;68.74
47374;BME280;33123;50.118;10.272;2022-09-16T04:00:40;96996.53;;;14.38;68.39
47374;BME280;33123;50.118;10.272;2022-09-16T04:03:07;96999.44;;;14.37;68.67
47374;BME280;33123;50.118;10.272;2022-09-16T04:05:33;96994.13;;;14.37;68.76
47374;BME280;33123;50.118;10.272;2022-09-16T04:08:00;96998.47;;;14.33;68.61
47374;BME280;33123;50.118;10.272;2022-09-16T04:10:28;96991.06;;;14.30;68.59
47374;BME280;33123;50.118;10.272;2022-09-16T04:12:56;96985.28;;;14.27;69.07
47374;BME280;33123;50.118;10.272;2022-09-16T04:15:22;96985.91;;;14.19;68.86
47374;BME280;33123;50.118;10.272;2022-09-16T04:17:49;96983.31;;;14.14;69.40
47374;BME280;33123;50.118;10.272;2022-09-16T04:20:16;96990.72;;;14.17;69.43
47374;BME280;33123;50.118;10.272;2022-09-16T04:22:43;96996.56;;;14.14;69.12
47374;BME280;33123;50.118;10.272;2022-09-16T04:25:09;96994.78;;;14.10;69.25
47374;BME280;33123;50.118;10.272;2022-09-16T04:27:37;97003.81;;;14.09;69.53
47374;BME280;33123;50.118;10.272;2022-09-16T04:30:06;97004.88;;;14.08;69.34
47374;BME280;33123;50.118;10.272;2022-09-16T04:32:33;97004.38;;;14.06;69.60
47374;BME280;33123;50.118;10.272;2022-09-16T04:34:59;97007.28;;;14.04;69.55
47374;BME280;33123;50.118;10.272;2022-09-16T04:37:28;97008.44;;;13.98;69.30
47374;BME280;33123;50.118;10.272;2022-09-16T04:39:55;97003.38;;;14.02;69.25
47374;BME280;33123;50.118;10.272;2022-09-16T04:42:22;97007.09;;;14.00;69.63
47374;BME280;33123;50.118;10.272;2022-09-16T04:44:50;97007.88;;;14.01;69.26
47374;BME280;33123;50.118;10.272;2022-09-16T04:47:16;97008.66;;;14.02;69.45
47374;BME280;33123;50.118;10.272;2022-09-16T04:49:43;97013.19;;;14.01;70.04
47374;BME280;33123;50.118;10.272;2022-09-16T04:52:09;97008.38;;;14.03;69.24
47374;BME280;33123;50.118;10.272;2022-09-16T04:54:36;97004.72;;;13.99;69.02
47374;BME280;33123;50.118;10.272;2022-09-16T04:57:03;96999.16;;;14.00;69.08
47374;BME280;33123;50.118;10.272;2022-09-16T04:59:29;97009.44;;;14.02;68.49
47374;BME280;33123;50.118;10.272;2022-09-16T05:01:57;97006.03;;;14.02;68.95
47374;BME280;33123;50.118;10.272;2022-09-16T05:04:24;97013.38;;;14.05;68.24
47374;BME280;33123;50.118;10.272;2022-09-16T05:06:52;97008.91;;;14.05;68.64
47374;BME280;33123;50.118;10.272;2022-09-16T05:09:19;97007.81;;;14.06;68.36
47374;BME280;33123;50.118;10.272;2022-09-16T05:11:47;97010.47;;;14.06;68.12
47374;BME280;33123;50.118;10.272;2022-09-16T05:14:15;97015.78;;;14.06;67.61
47374;BME280;33123;50.118;10.272;2022-09-16T05:16:42;97010.72;;;14.05;67.70
47374;BME280;33123;50.118;10.272;2022-09-16T05:19:11;97011.56;;;14.05;66.70
47374;BME280;33123;50.118;10.272;2022-09-16T05:21:39;97008.38;;;14.03;66.96
47374;BME280;33123;50.118;10.272;2022-09-16T05:24:07;97012.59;;;14.04;67.09
47374;BME280;33123;50.118;10.272;2022-09-16T05:26:36;97013.19;;;14.01;67.23
47374;BME280;33123;50.118;10.272;2022-09-16T05:29:05;97010.47;;;14.06;67.72
47374;BME280;33123;50.118;10.272;2022-09-16T05:31:34;97005.16;;;14.06;67.57
47374;BME280;33123;50.118;10.272;2022-09-16T05:34:02;97000.38;;;14.08;67.16
47374;BME280;33123;50.118;10.272;2022-09-16T05:36:33;97010.41;;;14.11;66.95
47374;BME280;33123;50.118;10.272;2022-09-16T05:39:01;97010.59;;;14.15;67.21
47374;BME280;33123;50.118;10.272;2022-09-16T05:41:28;97010.06;;;14.18;67.43
47374;BME280;33123;50.118;10.272;2022-09-16T05:43:56;97016.06;;;14.23;67.98
47374;BME280;33123;50.118;10.272;2022-09-16T05:46:23;97011.50;;;14.29;68.96
47374;BME280;33123;50.118;10.272;2022-09-16T05:48:50;97014.56;;;14.36;68.41
47374;BME280;33123;50.118;10.272;2022-09-16T05:51:19;97012.63;;;14.42;66.99
47374;BME280;33123;50.118;10.272;2022-09-16T05:53:48;96998.38;;;14.38;68.22
47374;BME280;33123;50.118;10.272;2022-09-16T05:56:16;97011.72;;;14.51;67.88
47374;BME280;33123;50.118;10.272;2022-09-16T05:58:43;97027.13;;;14.68;67.08
47374;BME280;33123;50.118;10.272;2022-09-16T06:01:12;97023.47;;;14.83;66.94
47374;BME280;33123;50.118;10.272;2022-09-16T06:03:41;97026.63;;;14.99;65.88
47374;BME280;33123;50.118;10.272;2022-09-16T06:06:12;97029.66;;;15.11;63.93
47374;BME280;33123;50.118;10.272;2022-09-16T06:08:39;97027.75;;;15.44;64.33
47374;BME280;33123;50.118;10.272;2022-09-16T06:11:09;97034.47;;;15.97;62.80
47374;BME280;33123;50.118;10.272;2022-09-16T06:13:37;97032.53;;;16.75;61.93
47374;BME280;33123;50.118;10.272;2022-09-16T06:16:05;97037.44;;;17.57;57.95
47374;BME280;33123;50.118;10.272;2022-09-16T06:18:32;97030.94;;;18.29;53.62
47374;BME280;33123;50.118;10.272;2022-09-16T06:21:03;97028.44;;;19.11;52.69
47374;BME280;33123;50.118;10.272;2022-09-16T06:23:29;97029.44;;;19.91;50.40
47374;BME280;33123;50.118;10.272;2022-09-16T06:26:00;97041.78;;;20.64;47.85
47374;BME280;33123;50.118;10.272;2022-09-16T06:28:28;97040.25;;;21.29;46.04
47374;BME280;33123;50.118;10.272;2022-09-16T06:31:03;97028.72;;;21.61;44.41
47374;BME280;33123;50.118;10.272;2022-09-16T06:33:31;97034.09;;;21.61;44.51
47374;BME280;33123;50.118;10.272;2022-09-16T06:36:01;97030.91;;;21.47;44.80
47374;BME280;33123;50.118;10.272;2022-09-16T06:38:28;97033.19;;;21.24;43.68
47374;BME280;33123;50.118;10.272;2022-09-16T06:40:57;97008.84;;;21.17;44.32
47374;BME280;33123;50.118;10.272;2022-09-16T06:43:23;97022.56;;;21.49;44.66
47374;BME280;33123;50.118;10.272;2022-09-16T06:45:55;97026.03;;;21.74;44.21
47374;BME280;33123;50.118;10.272;2022-09-16T06:48:22;97023.25;;;21.95;43.50
47374;BME280;33123;50.118;10.272;2022-09-16T06:50:56;97020.47;;;22.16;42.46
47374;BME280;33123;50.118;10.272;2022-09-16T06:53:23;97018.22;;;22.30;42.86
47374;BME280;33123;50.118;10.272;2022-09-16T06:55:50;97020.53;;;22.44;41.37
47374;BME280;33123;50.118;10.272;2022-09-16T06:58:16;97019.03;;;22.58;41.16
47374;BME280;33123;50.118;10.272;2022-09-16T07:00:43;97019.25;;;22.65;41.70
47374;BME280;33123;50.118;10.272;2022-09-16T07:03:11;97011.47;;;22.76;41.57
47374;BME280;33123;50.118;10.272;2022-09-16T07:05:37;97008.22;;;23.11;41.66
47374;BME280;33123;50.118;10.272;2022-09-16T07:08:04;97013.72;;;23.30;39.38
47374;BME280;33123;50.118;10.272;2022-09-16T07:10:31;97002.78;;;23.39;38.26
47374;BME280;33123;50.118;10.272;2022-09-16T07:12:57;96995.06;;;23.37;39.75
47374;BME280;33123;50.118;10.272;2022-09-16T07:15:24;97015.47;;;23.70;40.17
47374;BME280;33123;50.118;10.272;2022-09-16T07:17:52;97006.47;;;23.94;38.57
47374;BME280;33123;50.118;10.272;2022-09-16T07:20:20;97011.00;;;24.09;37.80
47374;BME280;33123;50.118;10.272;2022-09-16T07:22:47;97008.00;;;24.11;37.27
47374;BME280;33123;50.118;10.272;2022-09-16T07:25:17;97011.88;;;24.13;38.97
47374;BME280;33123;50.118;10.272;2022-09-16T07:27:44;97008.91;;;23.83;37.52
47374;BME280;33123;50.118;10.272;2022-09-16T07:30:11;96999.94;;;23.95;37.75
47374;BME280;33123;50.118;10.272;2022-09-16T07:32:40;97010.75;;;23.98;37.86
47374;BME280;33123;50.118;10.272;2022-09-16T07:35:07;97002.38;;;24.19;37.42
47374;BME280;33123;50.118;10.272;2022-09-16T07:37:35;97005.16;;;24.39;37.45
47374;BME280;33123;50.118;10.272;2022-09-16T07:40:02;97010.31;;;24.47;37.92
47374;BME280;33123;50.118;10.272;2022-09-16T07:42:29;97023.59;;;24.56;38.06
47374;BME280;33123;50.118;10.272;2022-09-16T07:44:56;97021.31;;;24.39;36.89
47374;BME280;33123;50.118;10.272;2022-09-16T07:47:23;97017.22;;;23.94;36.98
47374;BME280;33123;50.118;10.272;2022-09-16T07:49:49;97024.72;;;23.41;37.58
47374;BME280;33123;50.118;10.272;2022-09-16T07:52:20;97025.88;;;23.87;38.34
47374;BME280;33123;50.118;10.272;2022-09-16T07:54:49;97019.56;;;23.80;37.26
47374;BME280;33123;50.118;10.272;2022-09-16T07:57:15;97028.06;;;23.82;37.23
47374;BME280;33123;50.118;10.272;2022-09-16T07:59:42;97016.44;;;23.78;37.71
47374;BME280;33123;50.118;10.272;2022-09-16T08:02:09;97011.38;;;23.92;38.00
47374;BME280;33123;50.118;10.272;2022-09-16T08:04:35;97013.63;;;24.06;37.80
47374;BME280;33123;50.118;10.272;2022-09-16T08:07:02;97015.47;;;23.86;36.76
47374;BME280;33123;50.118;10.272;2022-09-16T08:09:28;97015.72;;;23.49;37.19
47374;BME280;33123;50.118;10.272;2022-09-16T08:11:57;97013.81;;;23.34;38.27
47374;BME280;33123;50.118;10.272;2022-09-16T08:14:23;97001.31;;;23.57;38.49
47374;BME280;33123;50.118;10.272;2022-09-16T08:16:50;96997.94;;;23.92;38.27
47374;BME280;33123;50.118;10.272;2022-09-16T08:19:17;96999.88;;;24.27;36.44
47374;BME280;33123;50.118;10.272;2022-09-16T08:21:44;96999.78;;;24.39;34.82
47374;BME280;33123;50.118;10.272;2022-09-16T08:24:11;97008.69;;;24.82;36.19
47374;BME280;33123;50.118;10.272;2022-09-16T08:26:38;97001.91;;;24.49;35.42
47374;BME280;33123;50.118;10.272;2022-09-16T08:29:06;97015.81;;;24.51;34.65
47374;BME280;33123;50.118;10.272;2022-09-16T08:31:32;97007.22;;;23.94;35.09
47374;BME280;33123;50.118;10.272;2022-09-16T08:33:59;97010.72;;;23.63;36.44
47374;BME280;33123;50.118;10.272;2022-09-16T08:36:25;97012.69;;;23.51;36.49
47374;BME280;33123;50.118;10.272;2022-09-16T08:38:54;97011.69;;;23.71;37.62
47374;BME280;33123;50.118;10.272;2022-09-16T08:41:38;97015.47;;;23.54;36.34
47374;BME280;33123;50.118;10.272;2022-09-16T08:44:16;97009.91;;;23.47;37.18
47374;BME280;33123;50.118;10.272;2022-09-16T08:46:50;97014.56;;;23.18;36.36
47374;BME280;33123;50.118;10.272;2022-09-16T08:49:22;97024.09;;;23.16;37.01
47374;BME280;33123;50.118;10.272;2022-09-16T08:51:53;97021.16;;;22.93;36.43
47374;BME280;33123;50.118;10.272;2022-09-16T08:54:26;97025.56;;;22.45;36.98
47374;BME280;33123;50.118;10.272;2022-09-16T08:57:02;97025.03;;;21.91;38.66
47374;BME280;33123;50.118;10.272;2022-09-16T08:59:35;97030.50;;;21.70;40.56
47374;BME280;33123;50.118;10.272;2022-09-16T09:02:19;97016.53;;;21.76;41.04
47374;BME280;33123;50.118;10.272;2022-09-16T09:04:48;97018.78;;;21.74;40.36
47374;BME280;33123;50.118;10.272;2022-09-16T09:07:22;97018.00;;;21.74;40.76
47374;BME280;33123;50.118;10.272;2022-09-16T09:10:00;97026.88;;;21.41;38.65
47374;BME280;33123;50.118;10.272;2022-09-16T09:12:33;97019.19;;;21.40;39.50
47374;BME280;33123;50.118;10.272;2022-09-16T09:15:24;97019.66;;;21.21;39.81
47374;BME280;33123;50.118;10.272;2022-09-16T09:18:02;97032.22;;;20.96;39.99
47374;BME280;33123;50.118;10.272;2022-09-16T09:20:40;97020.72;;;20.53;41.54
47374;BME280;33123;50.118;10.272;2022-09-16T09:23:26;97023.44;;;20.24;42.46
47374;BME280;33123;50.118;10.272;2022-09-16T09:25:58;97025.19;;;19.99;43.18
47374;BME280;33123;50.118;10.272;2022-09-16T09:28:51;97021.16;;;19.84;43.75
47374;BME280;33123;50.118;10.272;2022-09-16T09:31:28;97015.72;;;19.63;44.19
47374;BME280;33123;50.118;10.272;2022-09-16T09:34:04;97013.72;;;19.51;44.07
47374;BME280;33123;50.118;10.272;2022-09-16T09:36:41;97011.66;;;19.48;44.64
47374;BME280;33123;50.118;10.272;2022-09-16T09:39:26;97000.97;;;19.48;43.86
47374;BME280;33123;50.118;10.272;2022-09-16T09:41:59;97009.66;;;19.45;43.79
47374;BME280;33123;50.118;10.272;2022-09-16T09:44:38;97010.53;;;19.58;43.85
47374;BME280;33123;50.118;10.272;2022-09-16T09:47:10;97001.38;;;20.06;43.69
47374;BME280;33123;50.118;10.272;2022-09-16T09:49:42;97005.09;;;20.97;42.66
47374;BME280;33123;50.118;10.272;2022-09-16T09:52:14;97008.16;;;22.14;40.41
47374;BME280;33123;50.118;10.272;2022-09-16T09:54:44;97005.47;;;23.23;37.66
47374;BME280;33123;50.118;10.272;2022-09-16T09:57:17;96984.59;;;24.15;35.69
47374;BME280;33123;50.118;10.272;2022-09-16T09:59:49;96996.50;;;24.68;32.48
47374;BME280;33123;50.118;10.272;2022-09-16T10:02:20;96989.22;;;24.69;32.80
47374;BME280;33123;50.118;10.272;2022-09-16T10:04:48;96954.22;;;25.34;33.11
47374;BME280;33123;50.118;10.272;2022-09-16T10:07:18;96987.94;;;25.70;31.61
47374;BME280;33123;50.118;10.272;2022-09-16T10:09:48;96981.16;;;25.76;32.34
47374;BME280;33123;50.118;10.272;2022-09-16T10:12:26;96974.03;;;25.91;32.29
47374;BME280;33123;50.118;10.272;2022-09-16T10:14:53;96973.09;;;25.80;30.47
47374;BME280;33123;50.118;10.272;2022-09-16T10:17:21;96974.47;;;26.23;31.24
47374;BME280;33123;50.118;10.272;2022-09-16T10:19:51;96982.13;;;26.48;31.39
47374;BME280;33123;50.118;10.272;2022-09-16T10:22:22;96987.72;;;26.62;30.04
47374;BME280;33123;50.118;10.272;2022-09-16T10:24:53;96980.47;;;26.40;31.10
47374;BME280;33123;50.118;10.272;2022-09-16T10:27:22;96986.34;;;25.66;30.51
47374;BME280;33123;50.118;10.272;2022-09-16T10:30:06;96982.94;;;25.03;31.95
47374;BME280;33123;50.118;10.272;2022-09-16T10:32:44;96956.06;;;24.30;33.30
47374;BME280;33123;50.118;10.272;2022-09-16T10:35:16;96975.66;;;23.44;34.16
47374;BME280;33123;50.118;10.272;2022-09-16T10:37:48;96974.13;;;22.87;34.39
47374;BME280;33123;50.118;10.272;2022-09-16T10:40:16;96975.97;;;22.83;35.97
47374;BME280;33123;50.118;10.272;2022-09-16T10:42:45;96969.47;;;22.84;36.55
47374;BME280;33123;50.118;10.272;2022-09-16T10:45:14;96969.19;;;23.01;35.98
47374;BME280;33123;50.118;10.272;2022-09-16T10:47:48;96963.66;;;23.26;35.42
47374;BME280;33123;50.118;10.272;2022-09-16T10:50:17;96960.25;;;23.92;36.50
47374;BME280;33123;50.118;10.272;2022-09-16T10:52:46;96954.41;;;24.60;33.05
47374;BME280;33123;50.118;10.272;2022-09-16T10:55:22;96949.81;;;25.72;32.35
47374;BME280;33123;50.118;10.272;2022-09-16T10:57:49;96958.00;;;26.32;31.44
47374;BME280;33123;50.118;10.272;2022-09-16T11:00:18;96951.03;;;26.61;30.51
47374;BME280;33123;50.118;10.272;2022-09-16T11:05:51;96945.03;;;27.12;29.03
47374;BME280;33123;50.118;10.272;2022-09-16T11:08:34;96946.53;;;27.09;29.60
47374;BME280;33123;50.118;10.272;2022-09-16T11:11:07;96947.81;;;26.85;28.96
47374;BME280;33123;50.118;10.272;2022-09-16T11:13:44;96929.94;;;26.10;28.71
47374;BME280;33123;50.118;10.272;2022-09-16T11:16:28;96948.91;;;25.38;30.54
47374;BME280;33123;50.118;10.272;2022-09-16T11:19:04;96961.34;;;24.61;31.97
47374;BME280;33123;50.118;10.272;2022-09-16T11:21:44;96973.38;;;23.93;35.92
47374;BME280;33123;50.118;10.272;2022-09-16T11:24:25;96979.19;;;23.16;39.21
47374;BME280;33123;50.118;10.272;2022-09-16T11:26:58;96986.38;;;22.56;40.78
47374;BME280;33123;50.118;10.272;2022-09-16T11:29:45;96982.47;;;21.77;41.70
47374;BME280;33123;50.118;10.272;2022-09-16T11:32:22;96978.09;;;21.15;43.03
47374;BME280;33123;50.118;10.272;2022-09-16T11:35:05;96984.34;;;20.73;43.81
47374;BME280;33123;50.118;10.272;2022-09-16T11:37:46;96968.69;;;20.42;43.94
47374;BME280;33123;50.118;10.272;2022-09-16T11:40:26;96968.81;;;20.25;45.56
47374;BME280;33123;50.118;10.272;2022-09-16T11:43:01;96957.97;;;20.42;46.05
47374;BME280;33123;50.118;10.272;2022-09-16T11:45:41;96953.75;;;20.95;44.40
47374;BME280;33123;50.118;10.272;2022-09-16T11:48:30;96962.78;;;21.85;43.71
47374;BME280;33123;50.118;10.272;2022-09-16T11:51:06;96952.38;;;22.48;40.21
47374;BME280;33123;50.118;10.272;2022-09-16T11:53:57;96940.31;;;22.98;39.83
47374;BME280;33123;50.118;10.272;2022-09-16T11:56:33;96942.75;;;23.51;38.41
47374;BME280;33123;50.118;10.272;2022-09-16T11:59:08;96955.09;;;24.03;35.74
47374;BME280;33123;50.118;10.272;2022-09-16T12:01:41;96954.25;;;24.53;35.34
47374;BME280;33123;50.118;10.272;2022-09-16T12:04:14;96948.78;;;24.88;34.13
47374;BME280;33123;50.118;10.272;2022-09-16T12:06:51;96947.63;;;25.32;33.21
47374;BME280;33123;50.118;10.272;2022-09-16T12:09:25;96938.47;;;25.63;31.35
47374;BME280;33123;50.118;10.272;2022-09-16T12:11:59;96934.88;;;25.28;30.69
47374;BME280;33123;50.118;10.272;2022-09-16T12:14:34;96944.28;;;25.38;32.78
47374;BME280;33123;50.118;10.272;2022-09-16T12:17:05;96943.00;;;25.09;31.77
47374;BME280;33123;50.118;10.272;2022-09-16T12:22:49;96927.84;;;24.82;31.02
47374;BME280;33123;50.118;10.272;2022-09-16T12:25:21;96927.69;;;24.94;31.29
47374;BME280;33123;50.118;10.272;2022-09-16T12:27:56;96926.69;;;25.02;31.66
47374;BME280;33123;50.118;10.272;2022-09-16T12:30:29;96923.81;;;25.14;31.75
47374;BME280;33123;50.118;10.272;2022-09-16T12:33:00;96929.94;;;25.11;30.70
47374;BME280;33123;50.118;10.272;2022-09-16T12:35:32;96930.13;;;24.80;30.66
47374;BME280;33123;50.118;10.272;2022-09-16T12:38:00;96905.06;;;24.56;31.78
47374;BME280;33123;50.118;10.272;2022-09-16T12:40:35;96924.50;;;24.46;32.44
47374;BME280;33123;50.118;10.272;2022-09-16T12:43:24;96938.03;;;24.14;32.69
47374;BME280;33123;50.118;10.272;2022-09-16T12:46:09;96929.00;;;23.87;32.33
47374;BME280;33123;50.118;10.272;2022-09-16T12:48:55;96934.69;;;23.51;35.03
47374;BME280;33123;50.118;10.272;2022-09-16T12:51:36;96929.91;;;22.97;34.59
47374;BME280;33123;50.118;10.272;2022-09-16T12:54:25;96927.09;;;22.77;35.95
47374;BME280;33123;50.118;10.272;2022-09-16T12:57:17;96934.09;;;22.54;36.34
47374;BME280;33123;50.118;10.272;2022-09-16T13:00:10;96925.38;;;22.29;36.53
47374;BME280;33123;50.118;10.272;2022-09-16T13:02:40;96926.28;;;22.08;37.97
47374;BME280;33123;50.118;10.272;2022-09-16T13:05:17;96928.81;;;21.77;39.36
47374;BME280;33123;50.118;10.272;2022-09-16T13:07:50;96930.06;;;21.67;40.04
47374;BME280;33123;50.118;10.272;2022-09-16T13:10:20;96925.38;;;21.40;38.30
47374;BME280;33123;50.118;10.272;2022-09-16T13:12:51;96916.59;;;21.18;38.26
47374;BME280;33123;50.118;10.272;2022-09-16T13:15:26;96911.81;;;21.24;39.31
47374;BME280;33123;50.118;10.272;2022-09-16T13:17:53;96906.09;;;21.13;39.09
47374;BME280;33123;50.118;10.272;2022-09-16T13:20:25;96915.34;;;21.03;37.61
47374;BME280;33123;50.118;10.272;2022-09-16T13:23:03;96908.34;;;21.11;37.10
47374;BME280;33123;50.118;10.272;2022-09-16T13:25:33;96917.66;;;20.93;38.35
47374;BME280;33123;50.118;10.272;2022-09-16T13:28:19;96920.47;;;20.96;38.42
47374;BME280;33123;50.118;10.272;2022-09-16T13:30:47;96909.22;;;21.03;38.53